sensor_id;sensor_type;location;lat;lon;timestamp;P1;durP1;ratioP1;P2;durP2;ratioP2
72584;SDS011;73873;40.084;32.908;2024-02-16T00:01:16;36.40;;;14.48;;
72584;SDS011;73873;40.084;32.908;2024-02-16T00:03:43;35.88;;;14.57;;
72584;SDS011;73873;40.084;32.908;2024-02-16T00:06:11;32.80;;;14.18;;
72584;SDS011;73873;40.084;32.908;2024-02-16T00:08:39;31.83;;;13.70;;
72584;SDS011;73873;40.084;32.908;2024-02-16T00:11:05;31.38;;;13.20;;
72584;SDS011;73873;40.084;32.908;2024-02-16T00:13:32;26.27;;;11.70;;
72584;SDS011;73873;40.084;32.908;2024-02-16T00:15:59;27.35;;;11.48;;
72584;SDS011;73873;40.084;32.908;2024-02-16T00:18:26;23.42;;;10.23;;
72584;SDS011;73873;40.084;32.908;2024-02-16T00:20:53;21.80;;;10.10;;
72584;SDS011;73873;40.084;32.908;2024-02-16T00:23:20;21.63;;;8.93;;
72584;SDS011;73873;40.084;32.908;2024-02-16T00:25:47;17.63;;;8.20;;
72584;SDS011;73873;40.084;32.908;2024-02-16T00:28:14;18.98;;;8.00;;
72584;SDS011;73873;40.084;32.908;2024-02-16T00:30:41;19.48;;;8.73;;
72584;SDS011;73873;40.084;32.908;2024-02-16T00:33:08;21.40;;;9.23;;
72584;SDS011;73873;40.084;32.908;2024-02-16T00:35:35;22.13;;;8.95;;
72584;SDS011;73873;40.084;32.908;2024-02-16T00:38:02;19.45;;;8.23;;
72584;SDS011;73873;40.084;32.908;2024-02-16T00:40:29;17.48;;;7.70;;
72584;SDS011;73873;40.084;32.908;2024-02-16T00:42:58;18.35;;;8.38;;
72584;SDS011;73873;40.084;32.908;2024-02-16T00:45:25;20.63;;;8.70;;
72584;SDS011;73873;40.084;32.908;2024-02-16T00:47:52;18.25;;;7.75;;
72584;SDS011;73873;40.084;32.908;2024-02-16T00:50:19;21.10;;;8.65;;
72584;SDS011;73873;40.084;32.908;2024-02-16T00:52:46;21.55;;;8.80;;
72584;SDS011;73873;40.084;32.908;2024-02-16T00:55:13;21.90;;;9.15;;
72584;SDS011;73873;40.084;32.908;2024-02-16T00:57:40;26.97;;;10.77;;
72584;SDS011;73873;40.084;32.908;2024-02-16T01:00:07;27.25;;;11.68;;
72584;SDS011;73873;40.084;32.908;2024-02-16T01:02:34;25.83;;;10.60;;
72584;SDS011;73873;40.084;32.908;2024-02-16T01:05:01;24.08;;;10.57;;
72584;SDS011;73873;40.084;32.908;2024-02-16T01:07:29;32.33;;;13.23;;
72584;SDS011;73873;40.084;32.908;2024-02-16T01:09:56;29.80;;;12.67;;
72584;SDS011;73873;40.084;32.908;2024-02-16T01:12:23;25.42;;;10.50;;
72584;SDS011;73873;40.084;32.908;2024-02-16T01:14:50;21.35;;;8.57;;
72584;SDS011;73873;40.084;32.908;2024-02-16T01:17:18;16.02;;;6.65;;
72584;SDS011;73873;40.084;32.908;2024-02-16T01:19:45;12.85;;;5.40;;
72584;SDS011;73873;40.084;32.908;2024-02-16T01:22:12;14.73;;;5.87;;
72584;SDS011;73873;40.084;32.908;2024-02-16T01:24:39;15.98;;;6.75;;
72584;SDS011;73873;40.084;32.908;2024-02-16T01:27:06;17.00;;;6.22;;
72584;SDS011;73873;40.084;32.908;2024-02-16T01:29:33;14.13;;;5.93;;
72584;SDS011;73873;40.084;32.908;2024-02-16T01:31:59;13.35;;;5.25;;
72584;SDS011;73873;40.084;32.908;2024-02-16T01:34:26;15.13;;;6.27;;
72584;SDS011;73873;40.084;32.908;2024-02-16T01:36:53;15.98;;;5.88;;
72584;SDS011;73873;40.084;32.908;2024-02-16T01:39:20;18.50;;;7.40;;
72584;SDS011;73873;40.084;32.908;2024-02-16T01:41:47;25.85;;;11.23;;
72584;SDS011;73873;40.084;32.908;2024-02-16T01:44:14;17.60;;;8.48;;
72584;SDS011;73873;40.084;32.908;2024-02-16T01:46:41;19.70;;;8.13;;
72584;SDS011;73873;40.084;32.908;2024-02-16T01:49:08;15.23;;;6.78;;
72584;SDS011;73873;40.084;32.908;2024-02-16T01:51:36;15.15;;;6.13;;
72584;SDS011;73873;40.084;32.908;2024-02-16T01:54:03;15.13;;;6.13;;
72584;SDS011;73873;40.084;32.908;2024-02-16T01:56:30;14.30;;;5.75;;
72584;SDS011;73873;40.084;32.908;2024-02-16T01:58:57;14.73;;;6.73;;
72584;SDS011;73873;40.084;32.908;2024-02-16T02:01:24;18.27;;;7.43;;
72584;SDS011;73873;40.084;32.908;2024-02-16T02:03:51;18.63;;;8.00;;
72584;SDS011;73873;40.084;32.908;2024-02-16T02:06:18;19.88;;;8.80;;
72584;SDS011;73873;40.084;32.908;2024-02-16T02:08:45;23.48;;;9.43;;
72584;SDS011;73873;40.084;32.908;2024-02-16T02:11:12;24.87;;;9.90;;
72584;SDS011;73873;40.084;32.908;2024-02-16T02:13:39;21.75;;;9.25;;
72584;SDS011;73873;40.084;32.908;2024-02-16T02:16:06;21.98;;;9.20;;
72584;SDS011;73873;40.084;32.908;2024-02-16T02:18:34;23.08;;;10.13;;
72584;SDS011;73873;40.084;32.908;2024-02-16T02:21:01;26.27;;;11.48;;
72584;SDS011;73873;40.084;32.908;2024-02-16T02:23:28;19.67;;;8.30;;
72584;SDS011;73873;40.084;32.908;2024-02-16T02:25:55;21.23;;;9.00;;
72584;SDS011;73873;40.084;32.908;2024-02-16T02:28:22;21.40;;;8.70;;
72584;SDS011;73873;40.084;32.908;2024-02-16T02:30:48;19.77;;;8.60;;
72584;SDS011;73873;40.084;32.908;2024-02-16T02:33:15;20.05;;;8.88;;
72584;SDS011;73873;40.084;32.908;2024-02-16T02:35:42;23.83;;;9.40;;
72584;SDS011;73873;40.084;32.908;2024-02-16T02:38:09;24.95;;;10.15;;
72584;SDS011;73873;40.084;32.908;2024-02-16T02:40:36;23.48;;;9.73;;
72584;SDS011;73873;40.084;32.908;2024-02-16T02:43:03;23.05;;;9.35;;
72584;SDS011;73873;40.084;32.908;2024-02-16T02:45:30;20.02;;;9.15;;
72584;SDS011;73873;40.084;32.908;2024-02-16T02:47:57;22.53;;;8.40;;
72584;SDS011;73873;40.084;32.908;2024-02-16T02:50:24;17.25;;;7.32;;
72584;SDS011;73873;40.084;32.908;2024-02-16T02:52:51;18.63;;;7.22;;
72584;SDS011;73873;40.084;32.908;2024-02-16T02:55:17;16.88;;;6.43;;
72584;SDS011;73873;40.084;32.908;2024-02-16T02:57:44;15.65;;;6.13;;
72584;SDS011;73873;40.084;32.908;2024-02-16T03:00:11;12.27;;;4.90;;
72584;SDS011;73873;40.084;32.908;2024-02-16T03:02:41;12.73;;;5.00;;
72584;SDS011;73873;40.084;32.908;2024-02-16T03:05:08;16.02;;;6.18;;
72584;SDS011;73873;40.084;32.908;2024-02-16T03:07:35;14.23;;;5.90;;
72584;SDS011;73873;40.084;32.908;2024-02-16T03:10:02;14.23;;;6.32;;
72584;SDS011;73873;40.084;32.908;2024-02-16T03:12:31;13.77;;;6.23;;
72584;SDS011;73873;40.084;32.908;2024-02-16T03:14:58;19.98;;;6.45;;
72584;SDS011;73873;40.084;32.908;2024-02-16T03:17:25;13.23;;;5.45;;
72584;SDS011;73873;40.084;32.908;2024-02-16T03:19:52;14.35;;;5.40;;
72584;SDS011;73873;40.084;32.908;2024-02-16T03:22:20;12.32;;;5.53;;
72584;SDS011;73873;40.084;32.908;2024-02-16T03:24:47;14.70;;;5.60;;
72584;SDS011;73873;40.084;32.908;2024-02-16T03:27:13;13.52;;;4.97;;
72584;SDS011;73873;40.084;32.908;2024-02-16T03:29:40;17.75;;;7.07;;
72584;SDS011;73873;40.084;32.908;2024-02-16T03:32:07;17.70;;;7.43;;
72584;SDS011;73873;40.084;32.908;2024-02-16T03:34:34;17.27;;;6.68;;
72584;SDS011;73873;40.084;32.908;2024-02-16T03:37:01;14.53;;;5.90;;
72584;SDS011;73873;40.084;32.908;2024-02-16T03:39:28;14.98;;;6.20;;
72584;SDS011;73873;40.084;32.908;2024-02-16T03:41:55;17.33;;;7.70;;
72584;SDS011;73873;40.084;32.908;2024-02-16T03:44:22;18.90;;;7.25;;
72584;SDS011;73873;40.084;32.908;2024-02-16T03:46:48;18.45;;;8.23;;
72584;SDS011;73873;40.084;32.908;2024-02-16T03:49:18;18.57;;;8.03;;
72584;SDS011;73873;40.084;32.908;2024-02-16T03:51:45;20.83;;;8.73;;
72584;SDS011;73873;40.084;32.908;2024-02-16T03:54:12;21.20;;;8.40;;
72584;SDS011;73873;40.084;32.908;2024-02-16T03:56:38;19.45;;;7.80;;
72584;SDS011;73873;40.084;32.908;2024-02-16T03:59:05;17.70;;;7.43;;
72584;SDS011;73873;40.084;32.908;2024-02-16T04:01:35;17.67;;;7.20;;
72584;SDS011;73873;40.084;32.908;2024-02-16T04:04:02;17.25;;;6.88;;
72584;SDS011;73873;40.084;32.908;2024-02-16T04:06:29;17.92;;;6.80;;
72584;SDS011;73873;40.084;32.908;2024-02-16T04:08:56;20.73;;;7.47;;
72584;SDS011;73873;40.084;32.908;2024-02-16T04:11:23;22.75;;;9.00;;
72584;SDS011;73873;40.084;32.908;2024-02-16T04:13:50;22.57;;;8.27;;
72584;SDS011;73873;40.084;32.908;2024-02-16T04:16:16;28.00;;;9.70;;
72584;SDS011;73873;40.084;32.908;2024-02-16T04:18:43;22.70;;;7.95;;
72584;SDS011;73873;40.084;32.908;2024-02-16T04:21:10;22.58;;;8.63;;
72584;SDS011;73873;40.084;32.908;2024-02-16T04:23:37;22.38;;;8.57;;
72584;SDS011;73873;40.084;32.908;2024-02-16T04:26:04;21.93;;;7.93;;
72584;SDS011;73873;40.084;32.908;2024-02-16T04:28:31;22.67;;;8.18;;
72584;SDS011;73873;40.084;32.908;2024-02-16T04:30:58;20.05;;;7.50;;
72584;SDS011;73873;40.084;32.908;2024-02-16T04:33:25;18.98;;;7.50;;
72584;SDS011;73873;40.084;32.908;2024-02-16T04:35:53;19.35;;;6.85;;
72584;SDS011;73873;40.084;32.908;2024-02-16T04:38:20;22.37;;;8.00;;
72584;SDS011;73873;40.084;32.908;2024-02-16T04:40:47;21.33;;;8.27;;
72584;SDS011;73873;40.084;32.908;2024-02-16T04:43:14;23.90;;;9.15;;
72584;SDS011;73873;40.084;32.908;2024-02-16T04:45:40;27.15;;;10.73;;
72584;SDS011;73873;40.084;32.908;2024-02-16T04:48:08;23.52;;;9.48;;
72584;SDS011;73873;40.084;32.908;2024-02-16T04:50:35;24.27;;;9.03;;
72584;SDS011;73873;40.084;32.908;2024-02-16T04:53:02;22.55;;;8.60;;
72584;SDS011;73873;40.084;32.908;2024-02-16T04:55:29;24.33;;;8.93;;
72584;SDS011;73873;40.084;32.908;2024-02-16T04:57:56;26.10;;;8.98;;
72584;SDS011;73873;40.084;32.908;2024-02-16T05:00:23;24.95;;;9.60;;
72584;SDS011;73873;40.084;32.908;2024-02-16T05:02:50;30.37;;;11.93;;
72584;SDS011;73873;40.084;32.908;2024-02-16T05:05:18;27.73;;;10.65;;
72584;SDS011;73873;40.084;32.908;2024-02-16T05:07:48;30.52;;;11.40;;
72584;SDS011;73873;40.084;32.908;2024-02-16T05:10:16;35.67;;;13.32;;
72584;SDS011;73873;40.084;32.908;2024-02-16T05:12:43;26.38;;;10.57;;
72584;SDS011;73873;40.084;32.908;2024-02-16T05:15:10;34.80;;;12.50;;
72584;SDS011;73873;40.084;32.908;2024-02-16T05:17:37;40.33;;;14.32;;
72584;SDS011;73873;40.084;32.908;2024-02-16T05:20:07;34.60;;;13.68;;
72584;SDS011;73873;40.084;32.908;2024-02-16T05:22:37;44.35;;;14.32;;
72584;SDS011;73873;40.084;32.908;2024-02-16T05:25:04;43.80;;;16.58;;
72584;SDS011;73873;40.084;32.908;2024-02-16T05:27:31;35.67;;;13.40;;
72584;SDS011;73873;40.084;32.908;2024-02-16T05:29:58;31.33;;;11.30;;
72584;SDS011;73873;40.084;32.908;2024-02-16T05:32:25;36.45;;;13.80;;
72584;SDS011;73873;40.084;32.908;2024-02-16T05:34:52;30.80;;;12.07;;
72584;SDS011;73873;40.084;32.908;2024-02-16T05:37:21;31.10;;;12.85;;
72584;SDS011;73873;40.084;32.908;2024-02-16T05:39:48;32.23;;;13.10;;
72584;SDS011;73873;40.084;32.908;2024-02-16T05:42:15;30.77;;;12.80;;
72584;SDS011;73873;40.084;32.908;2024-02-16T05:44:42;31.75;;;12.20;;
72584;SDS011;73873;40.084;32.908;2024-02-16T05:47:09;30.65;;;12.15;;
72584;SDS011;73873;40.084;32.908;2024-02-16T05:49:36;30.45;;;11.80;;
72584;SDS011;73873;40.084;32.908;2024-02-16T05:52:03;33.97;;;12.57;;
72584;SDS011;73873;40.084;32.908;2024-02-16T05:54:31;29.23;;;12.00;;
72584;SDS011;73873;40.084;32.908;2024-02-16T05:57:00;34.25;;;13.07;;
72584;SDS011;73873;40.084;32.908;2024-02-16T05:59:27;37.53;;;14.73;;
72584;SDS011;73873;40.084;32.908;2024-02-16T06:01:54;38.88;;;15.07;;
72584;SDS011;73873;40.084;32.908;2024-02-16T06:04:20;39.50;;;14.60;;
72584;SDS011;73873;40.084;32.908;2024-02-16T06:06:47;39.15;;;14.75;;
72584;SDS011;73873;40.084;32.908;2024-02-16T06:09:14;37.53;;;15.70;;
72584;SDS011;73873;40.084;32.908;2024-02-16T06:11:41;35.65;;;14.35;;
72584;SDS011;73873;40.084;32.908;2024-02-16T06:14:08;37.28;;;14.10;;
72584;SDS011;73873;40.084;32.908;2024-02-16T06:16:35;51.57;;;19.30;;
72584;SDS011;73873;40.084;32.908;2024-02-16T06:19:02;38.08;;;14.50;;
72584;SDS011;73873;40.084;32.908;2024-02-16T06:21:29;36.20;;;14.30;;
72584;SDS011;73873;40.084;32.908;2024-02-16T06:23:56;39.22;;;15.07;;
72584;SDS011;73873;40.084;32.908;2024-02-16T06:26:23;41.92;;;15.77;;
72584;SDS011;73873;40.084;32.908;2024-02-16T06:28:49;44.80;;;15.97;;
72584;SDS011;73873;40.084;32.908;2024-02-16T06:31:16;44.22;;;16.10;;
72584;SDS011;73873;40.084;32.908;2024-02-16T06:33:43;48.25;;;16.50;;
72584;SDS011;73873;40.084;32.908;2024-02-16T06:36:10;51.05;;;16.17;;
72584;SDS011;73873;40.084;32.908;2024-02-16T06:38:37;51.20;;;16.48;;
72584;SDS011;73873;40.084;32.908;2024-02-16T06:41:04;53.07;;;16.90;;
72584;SDS011;73873;40.084;32.908;2024-02-16T06:43:31;47.88;;;17.20;;
72584;SDS011;73873;40.084;32.908;2024-02-16T06:45:58;49.25;;;17.00;;
72584;SDS011;73873;40.084;32.908;2024-02-16T06:48:25;47.83;;;17.58;;
72584;SDS011;73873;40.084;32.908;2024-02-16T06:50:52;48.97;;;17.48;;
72584;SDS011;73873;40.084;32.908;2024-02-16T06:53:19;52.20;;;17.10;;
72584;SDS011;73873;40.084;32.908;2024-02-16T06:55:46;48.25;;;15.65;;
72584;SDS011;73873;40.084;32.908;2024-02-16T06:58:13;50.67;;;17.63;;
72584;SDS011;73873;40.084;32.908;2024-02-16T07:00:39;48.10;;;17.70;;
72584;SDS011;73873;40.084;32.908;2024-02-16T07:03:06;50.60;;;18.13;;
72584;SDS011;73873;40.084;32.908;2024-02-16T07:05:34;45.67;;;17.23;;
72584;SDS011;73873;40.084;32.908;2024-02-16T07:08:03;52.10;;;17.58;;
72584;SDS011;73873;40.084;32.908;2024-02-16T07:10:30;46.30;;;16.65;;
72584;SDS011;73873;40.084;32.908;2024-02-16T07:12:56;46.40;;;17.35;;
72584;SDS011;73873;40.084;32.908;2024-02-16T07:15:23;47.97;;;17.00;;
72584;SDS011;73873;40.084;32.908;2024-02-16T07:17:50;49.60;;;17.27;;
72584;SDS011;73873;40.084;32.908;2024-02-16T07:20:17;50.00;;;17.63;;
72584;SDS011;73873;40.084;32.908;2024-02-16T07:22:44;47.55;;;17.52;;
72584;SDS011;73873;40.084;32.908;2024-02-16T07:25:11;48.50;;;17.88;;
72584;SDS011;73873;40.084;32.908;2024-02-16T07:27:38;52.80;;;19.17;;
72584;SDS011;73873;40.084;32.908;2024-02-16T07:30:06;53.23;;;18.77;;
72584;SDS011;73873;40.084;32.908;2024-02-16T07:32:33;55.55;;;20.55;;
72584;SDS011;73873;40.084;32.908;2024-02-16T07:35:00;64.15;;;25.52;;
72584;SDS011;73873;40.084;32.908;2024-02-16T07:37:27;50.80;;;19.48;;
72584;SDS011;73873;40.084;32.908;2024-02-16T07:39:54;53.67;;;18.70;;
72584;SDS011;73873;40.084;32.908;2024-02-16T07:42:46;59.93;;;20.27;;
72584;SDS011;73873;40.084;32.908;2024-02-16T07:45:13;57.38;;;20.48;;
72584;SDS011;73873;40.084;32.908;2024-02-16T07:47:40;54.40;;;20.05;;
72584;SDS011;73873;40.084;32.908;2024-02-16T07:50:08;55.67;;;19.98;;
72584;SDS011;73873;40.084;32.908;2024-02-16T07:52:37;53.58;;;19.60;;
72584;SDS011;73873;40.084;32.908;2024-02-16T07:55:05;53.07;;;19.33;;
72584;SDS011;73873;40.084;32.908;2024-02-16T07:57:33;52.33;;;19.88;;
72584;SDS011;73873;40.084;32.908;2024-02-16T08:00:00;47.75;;;18.98;;
72584;SDS011;73873;40.084;32.908;2024-02-16T08:02:28;50.92;;;19.25;;
72584;SDS011;73873;40.084;32.908;2024-02-16T08:04:55;54.50;;;19.60;;
72584;SDS011;73873;40.084;32.908;2024-02-16T08:07:22;48.23;;;18.53;;
72584;SDS011;73873;40.084;32.908;2024-02-16T08:09:49;50.00;;;18.88;;
72584;SDS011;73873;40.084;32.908;2024-02-16T08:12:16;50.30;;;18.90;;
72584;SDS011;73873;40.084;32.908;2024-02-16T08:14:43;50.50;;;19.77;;
72584;SDS011;73873;40.084;32.908;2024-02-16T08:17:10;52.03;;;19.90;;
72584;SDS011;73873;40.084;32.908;2024-02-16T08:19:50;51.67;;;19.77;;
72584;SDS011;73873;40.084;32.908;2024-02-16T08:22:18;51.00;;;19.38;;
72584;SDS011;73873;40.084;32.908;2024-02-16T08:24:45;49.30;;;19.60;;
72584;SDS011;73873;40.084;32.908;2024-02-16T08:27:12;51.80;;;20.23;;
72584;SDS011;73873;40.084;32.908;2024-02-16T08:29:42;49.53;;;18.88;;
72584;SDS011;73873;40.084;32.908;2024-02-16T08:32:09;43.20;;;17.20;;
72584;SDS011;73873;40.084;32.908;2024-02-16T08:34:37;46.88;;;18.67;;
72584;SDS011;73873;40.084;32.908;2024-02-16T08:37:05;46.25;;;17.70;;
72584;SDS011;73873;40.084;32.908;2024-02-16T08:39:33;43.47;;;17.17;;
72584;SDS011;73873;40.084;32.908;2024-02-16T08:42:00;45.00;;;17.35;;
72584;SDS011;73873;40.084;32.908;2024-02-16T08:44:27;44.43;;;17.50;;
72584;SDS011;73873;40.084;32.908;2024-02-16T08:46:54;44.67;;;17.90;;
72584;SDS011;73873;40.084;32.908;2024-02-16T08:49:21;42.80;;;17.55;;
72584;SDS011;73873;40.084;32.908;2024-02-16T08:51:48;44.75;;;17.90;;
72584;SDS011;73873;40.084;32.908;2024-02-16T08:54:15;41.95;;;17.13;;
72584;SDS011;73873;40.084;32.908;2024-02-16T08:56:42;41.07;;;16.07;;
72584;SDS011;73873;40.084;32.908;2024-02-16T08:59:09;42.13;;;16.40;;
72584;SDS011;73873;40.084;32.908;2024-02-16T09:01:36;39.72;;;15.65;;
72584;SDS011;73873;40.084;32.908;2024-02-16T09:04:04;33.50;;;13.95;;
72584;SDS011;73873;40.084;32.908;2024-02-16T09:06:32;33.10;;;13.85;;
72584;SDS011;73873;40.084;32.908;2024-02-16T09:08:59;38.63;;;15.17;;
72584;SDS011;73873;40.084;32.908;2024-02-16T09:11:26;34.13;;;13.80;;
72584;SDS011;73873;40.084;32.908;2024-02-16T09:13:53;34.97;;;14.13;;
72584;SDS011;73873;40.084;32.908;2024-02-16T09:16:19;30.02;;;13.50;;
72584;SDS011;73873;40.084;32.908;2024-02-16T09:18:50;33.08;;;14.10;;
72584;SDS011;73873;40.084;32.908;2024-02-16T09:21:17;27.87;;;12.20;;
72584;SDS011;73873;40.084;32.908;2024-02-16T09:23:45;31.73;;;13.90;;
72584;SDS011;73873;40.084;32.908;2024-02-16T09:26:12;32.33;;;12.93;;
72584;SDS011;73873;40.084;32.908;2024-02-16T09:28:39;31.13;;;12.63;;
72584;SDS011;73873;40.084;32.908;2024-02-16T09:31:07;26.98;;;12.70;;
72584;SDS011;73873;40.084;32.908;2024-02-16T09:33:34;29.73;;;12.67;;
72584;SDS011;73873;40.084;32.908;2024-02-16T09:36:01;29.75;;;12.63;;
72584;SDS011;73873;40.084;32.908;2024-02-16T09:38:28;30.10;;;12.27;;
72584;SDS011;73873;40.084;32.908;2024-02-16T09:40:55;29.80;;;13.82;;
72584;SDS011;73873;40.084;32.908;2024-02-16T09:43:27;23.63;;;11.27;;
72584;SDS011;73873;40.084;32.908;2024-02-16T09:45:55;26.47;;;12.40;;
72584;SDS011;73873;40.084;32.908;2024-02-16T09:48:25;21.13;;;9.60;;
72584;SDS011;73873;40.084;32.908;2024-02-16T09:50:53;30.50;;;13.18;;
72584;SDS011;73873;40.084;32.908;2024-02-16T09:53:24;24.17;;;10.75;;
72584;SDS011;73873;40.084;32.908;2024-02-16T09:55:52;27.75;;;12.23;;
72584;SDS011;73873;40.084;32.908;2024-02-16T09:58:19;18.43;;;9.33;;
72584;SDS011;73873;40.084;32.908;2024-02-16T10:00:53;18.17;;;8.88;;
72584;SDS011;73873;40.084;32.908;2024-02-16T10:03:22;22.83;;;10.75;;
72584;SDS011;73873;40.084;32.908;2024-02-16T10:06:09;25.98;;;11.60;;
72584;SDS011;73873;40.084;32.908;2024-02-16T10:11:34;21.93;;;10.37;;
72584;SDS011;73873;40.084;32.908;2024-02-16T10:14:02;17.35;;;8.60;;
72584;SDS011;73873;40.084;32.908;2024-02-16T10:16:31;18.02;;;9.05;;
72584;SDS011;73873;40.084;32.908;2024-02-16T10:19:07;18.88;;;9.05;;
72584;SDS011;73873;40.084;32.908;2024-02-16T10:21:37;18.15;;;8.05;;
72584;SDS011;73873;40.084;32.908;2024-02-16T10:24:05;19.87;;;8.90;;
72584;SDS011;73873;40.084;32.908;2024-02-16T10:26:33;16.92;;;8.80;;
72584;SDS011;73873;40.084;32.908;2024-02-16T10:29:10;18.60;;;8.65;;
72584;SDS011;73873;40.084;32.908;2024-02-16T10:31:37;19.70;;;9.52;;
72584;SDS011;73873;40.084;32.908;2024-02-16T10:34:04;16.48;;;8.25;;
72584;SDS011;73873;40.084;32.908;2024-02-16T10:36:34;19.40;;;9.63;;
72584;SDS011;73873;40.084;32.908;2024-02-16T10:39:03;18.67;;;9.20;;
72584;SDS011;73873;40.084;32.908;2024-02-16T10:41:33;17.05;;;8.73;;
72584;SDS011;73873;40.084;32.908;2024-02-16T10:44:04;17.90;;;9.07;;
72584;SDS011;73873;40.084;32.908;2024-02-16T10:46:33;20.65;;;10.25;;
72584;SDS011;73873;40.084;32.908;2024-02-16T10:49:01;17.90;;;8.77;;
72584;SDS011;73873;40.084;32.908;2024-02-16T10:51:45;14.15;;;7.10;;
72584;SDS011;73873;40.084;32.908;2024-02-16T10:54:15;17.20;;;9.20;;
72584;SDS011;73873;40.084;32.908;2024-02-16T10:56:48;18.35;;;9.00;;
72584;SDS011;73873;40.084;32.908;2024-02-16T10:59:16;17.83;;;8.82;;
72584;SDS011;73873;40.084;32.908;2024-02-16T11:01:44;16.40;;;8.57;;
72584;SDS011;73873;40.084;32.908;2024-02-16T11:04:13;17.65;;;8.65;;
72584;SDS011;73873;40.084;32.908;2024-02-16T11:06:46;17.35;;;9.20;;
72584;SDS011;73873;40.084;32.908;2024-02-16T11:09:30;17.00;;;8.63;;
72584;SDS011;73873;40.084;32.908;2024-02-16T11:12:02;15.65;;;8.15;;
72584;SDS011;73873;40.084;32.908;2024-02-16T11:14:48;15.50;;;8.27;;
72584;SDS011;73873;40.084;32.908;2024-02-16T11:17:19;19.50;;;9.30;;
72584;SDS011;73873;40.084;32.908;2024-02-16T11:19:48;14.93;;;8.10;;
72584;SDS011;73873;40.084;32.908;2024-02-16T11:22:16;12.63;;;6.38;;
72584;SDS011;73873;40.084;32.908;2024-02-16T11:24:49;15.57;;;7.72;;
72584;SDS011;73873;40.084;32.908;2024-02-16T11:27:17;15.20;;;7.90;;
72584;SDS011;73873;40.084;32.908;2024-02-16T11:29:44;13.43;;;7.43;;
72584;SDS011;73873;40.084;32.908;2024-02-16T11:32:12;16.92;;;7.90;;
72584;SDS011;73873;40.084;32.908;2024-02-16T11:34:39;10.95;;;5.80;;
72584;SDS011;73873;40.084;32.908;2024-02-16T11:37:06;12.88;;;7.32;;
72584;SDS011;73873;40.084;32.908;2024-02-16T11:39:33;13.33;;;8.00;;
72584;SDS011;73873;40.084;32.908;2024-02-16T11:44:32;13.05;;;6.13;;
72584;SDS011;73873;40.084;32.908;2024-02-16T11:47:02;11.82;;;6.30;;
72584;SDS011;73873;40.084;32.908;2024-02-16T11:49:30;10.38;;;5.75;;
72584;SDS011;73873;40.084;32.908;2024-02-16T11:52:00;12.17;;;6.23;;
72584;SDS011;73873;40.084;32.908;2024-02-16T11:54:27;11.90;;;6.03;;
72584;SDS011;73873;40.084;32.908;2024-02-16T11:56:54;11.70;;;6.03;;
72584;SDS011;73873;40.084;32.908;2024-02-16T11:59:21;10.93;;;5.93;;
72584;SDS011;73873;40.084;32.908;2024-02-16T12:01:56;11.07;;;5.88;;
72584;SDS011;73873;40.084;32.908;2024-02-16T12:04:28;12.47;;;6.40;;
72584;SDS011;73873;40.084;32.908;2024-02-16T12:06:59;10.65;;;5.57;;
72584;SDS011;73873;40.084;32.908;2024-02-16T12:09:31;13.75;;;6.50;;
72584;SDS011;73873;40.084;32.908;2024-02-16T12:11:58;11.77;;;5.88;;
72584;SDS011;73873;40.084;32.908;2024-02-16T12:14:25;10.77;;;6.03;;
72584;SDS011;73873;40.084;32.908;2024-02-16T12:16:54;12.63;;;6.43;;
72584;SDS011;73873;40.084;32.908;2024-02-16T12:19:23;11.80;;;6.53;;
72584;SDS011;73873;40.084;32.908;2024-02-16T12:21:56;12.07;;;6.47;;
72584;SDS011;73873;40.084;32.908;2024-02-16T12:24:24;11.73;;;6.07;;
72584;SDS011;73873;40.084;32.908;2024-02-16T12:26:53;12.63;;;6.15;;
72584;SDS011;73873;40.084;32.908;2024-02-16T12:29:20;12.07;;;6.07;;
72584;SDS011;73873;40.084;32.908;2024-02-16T12:31:47;11.68;;;6.20;;
72584;SDS011;73873;40.084;32.908;2024-02-16T12:34:14;14.65;;;7.60;;
72584;SDS011;73873;40.084;32.908;2024-02-16T12:36:41;14.00;;;6.38;;
72584;SDS011;73873;40.084;32.908;2024-02-16T12:39:13;13.65;;;6.85;;
72584;SDS011;73873;40.084;32.908;2024-02-16T12:41:40;10.00;;;5.33;;
72584;SDS011;73873;40.084;32.908;2024-02-16T12:44:07;12.52;;;6.25;;
72584;SDS011;73873;40.084;32.908;2024-02-16T12:46:34;12.23;;;6.03;;
72584;SDS011;73873;40.084;32.908;2024-02-16T12:49:01;12.82;;;6.40;;
72584;SDS011;73873;40.084;32.908;2024-02-16T12:51:28;11.27;;;5.97;;
72584;SDS011;73873;40.084;32.908;2024-02-16T12:53:55;11.03;;;5.60;;
72584;SDS011;73873;40.084;32.908;2024-02-16T12:56:22;11.75;;;5.70;;
72584;SDS011;73873;40.084;32.908;2024-02-16T12:58:49;11.50;;;6.13;;
72584;SDS011;73873;40.084;32.908;2024-02-16T13:01:16;10.98;;;5.65;;
72584;SDS011;73873;40.084;32.908;2024-02-16T13:03:51;12.25;;;5.95;;
72584;SDS011;73873;40.084;32.908;2024-02-16T13:06:18;13.67;;;7.03;;
72584;SDS011;73873;40.084;32.908;2024-02-16T13:08:50;16.85;;;8.90;;
72584;SDS011;73873;40.084;32.908;2024-02-16T13:11:17;23.67;;;11.10;;
72584;SDS011;73873;40.084;32.908;2024-02-16T13:13:44;18.33;;;9.23;;
72584;SDS011;73873;40.084;32.908;2024-02-16T13:16:11;25.02;;;13.18;;
72584;SDS011;73873;40.084;32.908;2024-02-16T13:18:38;18.93;;;8.87;;
72584;SDS011;73873;40.084;32.908;2024-02-16T13:21:05;17.17;;;9.07;;
72584;SDS011;73873;40.084;32.908;2024-02-16T13:23:32;12.60;;;6.40;;
72584;SDS011;73873;40.084;32.908;2024-02-16T13:25:59;12.57;;;6.95;;
72584;SDS011;73873;40.084;32.908;2024-02-16T13:28:26;12.95;;;6.97;;
72584;SDS011;73873;40.084;32.908;2024-02-16T13:30:53;15.47;;;7.43;;
72584;SDS011;73873;40.084;32.908;2024-02-16T13:33:19;9.90;;;4.82;;
72584;SDS011;73873;40.084;32.908;2024-02-16T13:35:47;8.38;;;4.13;;
72584;SDS011;73873;40.084;32.908;2024-02-16T13:38:14;9.45;;;4.85;;
72584;SDS011;73873;40.084;32.908;2024-02-16T13:40:40;7.35;;;3.72;;
72584;SDS011;73873;40.084;32.908;2024-02-16T13:43:07;16.50;;;8.40;;
72584;SDS011;73873;40.084;32.908;2024-02-16T13:45:47;9.85;;;4.82;;
72584;SDS011;73873;40.084;32.908;2024-02-16T13:48:15;8.75;;;4.50;;
72584;SDS011;73873;40.084;32.908;2024-02-16T13:50:48;8.25;;;3.97;;
72584;SDS011;73873;40.084;32.908;2024-02-16T13:53:16;7.05;;;3.45;;
72584;SDS011;73873;40.084;32.908;2024-02-16T13:55:47;7.20;;;3.33;;
72584;SDS011;73873;40.084;32.908;2024-02-16T13:58:15;8.30;;;4.30;;
72584;SDS011;73873;40.084;32.908;2024-02-16T14:00:42;7.45;;;3.80;;
72584;SDS011;73873;40.084;32.908;2024-02-16T14:03:11;7.45;;;3.42;;
72584;SDS011;73873;40.084;32.908;2024-02-16T14:05:40;7.55;;;3.47;;
72584;SDS011;73873;40.084;32.908;2024-02-16T14:08:10;7.90;;;3.37;;
72584;SDS011;73873;40.084;32.908;2024-02-16T14:10:37;6.53;;;3.00;;
72584;SDS011;73873;40.084;32.908;2024-02-16T14:13:04;6.93;;;3.50;;
72584;SDS011;73873;40.084;32.908;2024-02-16T14:15:31;6.90;;;3.20;;
72584;SDS011;73873;40.084;32.908;2024-02-16T14:17:59;7.43;;;3.08;;
72584;SDS011;73873;40.084;32.908;2024-02-16T14:20:37;6.57;;;3.03;;
72584;SDS011;73873;40.084;32.908;2024-02-16T14:23:04;7.43;;;3.38;;
72584;SDS011;73873;40.084;32.908;2024-02-16T14:25:31;6.53;;;3.15;;